TAY6SL ENGM-ESGG
Flight info
| Callsign | TAY6SL |
|---|---|
| Flight time | 0h 37m |
| Altitude | 27000 |
| Route | OKSAT L996 KELIN |
| Aircraft | B738/M-SDE2E3FGHIRWXY/LB1 |
Departure
| Time | 2026-05-05 18:28 |
|---|---|
| Airport | Oslo-Gardermoen International Airport (ENGM) |
Arrival
| Time | 2026-05-05 19:05 |
|---|---|
| Airport | Göteborg Landvetter Airport (ESGG) |
| Time | Latitude | Longitude | Altitude | Speed | Heading |
|---|---|---|---|---|---|
| 2026-05-05 18:01 | 60.19255 | 11.08552 | 679 ft | 0 kts | 106° |
| 2026-05-05 18:20 | 60.19259 | 11.08530 | 677 ft | 4 kts | 108° |
| 2026-05-05 18:20 | 60.19268 | 11.08479 | 675 ft | 4 kts | 115° |
| 2026-05-05 18:20 | 60.19281 | 11.08432 | 675 ft | 4 kts | 129° |
| 2026-05-05 18:21 | 60.19299 | 11.08401 | 677 ft | 4 kts | 174° |
| 2026-05-05 18:21 | 60.19308 | 11.08401 | 678 ft | 1 kts | 196° |
| 2026-05-05 18:23 | 60.19303 | 11.08398 | 677 ft | 3 kts | 196° |
| 2026-05-05 18:24 | 60.19263 | 11.08374 | 678 ft | 9 kts | 198° |
| 2026-05-05 18:24 | 60.19228 | 11.08277 | 678 ft | 9 kts | 271° |
| 2026-05-05 18:24 | 60.19242 | 11.08154 | 681 ft | 9 kts | 284° |
| 2026-05-05 18:24 | 60.19247 | 11.08119 | 681 ft | 0 kts | 285° |
| 2026-05-05 18:25 | 60.19247 | 11.08118 | 681 ft | 1 kts | 285° |
| 2026-05-05 18:25 | 60.19257 | 11.08042 | 681 ft | 8 kts | 285° |
| 2026-05-05 18:26 | 60.19272 | 11.07925 | 681 ft | 9 kts | 285° |
| 2026-05-05 18:26 | 60.19315 | 11.07853 | 681 ft | 8 kts | 355° |
| 2026-05-05 18:26 | 60.19352 | 11.07863 | 681 ft | 0 kts | 13° |
| 2026-05-05 18:27 | 60.19470 | 11.07929 | 681 ft | 56 kts | 16° |
| 2026-05-05 18:27 | 60.20135 | 11.08314 | 682 ft | 140 kts | 15° |
| 2026-05-05 18:27 | 60.21241 | 11.08988 | 1083 ft | 179 kts | 17° |
| 2026-05-05 18:28 | 60.23641 | 11.10484 | 3080 ft | 197 kts | 10° |
| 2026-05-05 18:28 | 60.25079 | 11.11173 | 3345 ft | 225 kts | 7° |
| 2026-05-05 18:28 | 60.26681 | 11.11352 | 3717 ft | 243 kts | 352° |
| 2026-05-05 18:29 | 60.28399 | 11.10873 | 4400 ft | 254 kts | 348° |
| 2026-05-05 18:29 | 60.30167 | 11.10626 | 5401 ft | 260 kts | 7° |
| 2026-05-05 18:29 | 60.31788 | 11.12169 | 6384 ft | 269 kts | 38° |
| 2026-05-05 18:29 | 60.32898 | 11.15314 | 6838 ft | 279 kts | 70° |
| 2026-05-05 18:30 | 60.33220 | 11.19203 | 6995 ft | 284 kts | 78° |
| 2026-05-05 18:30 | 60.33912 | 11.22875 | 7020 ft | 279 kts | 60° |
| 2026-05-05 18:30 | 60.34776 | 11.26389 | 7008 ft | 280 kts | 63° |
| 2026-05-05 18:30 | 60.35581 | 11.29987 | 7011 ft | 281 kts | 64° |
| 2026-05-05 18:31 | 60.36339 | 11.33577 | 7005 ft | 282 kts | 65° |
| 2026-05-05 18:31 | 60.37086 | 11.37241 | 7008 ft | 282 kts | 66° |
| 2026-05-05 18:31 | 60.37821 | 11.40918 | 7002 ft | 282 kts | 66° |
| 2026-05-05 18:31 | 60.38554 | 11.44641 | 6993 ft | 281 kts | 66° |
| 2026-05-05 18:32 | 60.39262 | 11.48256 | 6998 ft | 280 kts | 66° |
| 2026-05-05 18:32 | 60.39986 | 11.51963 | 6999 ft | 280 kts | 66° |
| 2026-05-05 18:32 | 60.40533 | 11.55747 | 6983 ft | 282 kts | 85° |
| 2026-05-05 18:32 | 60.40198 | 11.59571 | 7006 ft | 282 kts | 115° |
| 2026-05-05 18:33 | 60.39015 | 11.62676 | 6998 ft | 280 kts | 144° |
| 2026-05-05 18:33 | 60.37292 | 11.64389 | 7008 ft | 277 kts | 169° |
| 2026-05-05 18:33 | 60.35393 | 11.64969 | 7009 ft | 276 kts | 176° |
| 2026-05-05 18:33 | 60.33464 | 11.65328 | 7136 ft | 281 kts | 178° |
| 2026-05-05 18:34 | 60.31505 | 11.65657 | 8009 ft | 282 kts | 178° |
| 2026-05-05 18:34 | 60.29558 | 11.65987 | 9087 ft | 281 kts | 178° |
| 2026-05-05 18:34 | 60.27604 | 11.66327 | 10031 ft | 283 kts | 178° |
| 2026-05-05 18:34 | 60.25589 | 11.66681 | 10518 ft | 303 kts | 178° |
| 2026-05-05 18:35 | 60.23396 | 11.67069 | 10755 ft | 327 kts | 178° |
| 2026-05-05 18:35 | 60.21100 | 11.67489 | 11422 ft | 336 kts | 178° |
| 2026-05-05 18:35 | 60.18751 | 11.67929 | 12212 ft | 342 kts | 178° |
| 2026-05-05 18:35 | 60.16354 | 11.68382 | 13039 ft | 347 kts | 178° |
| 2026-05-05 18:36 | 60.13935 | 11.68840 | 13812 ft | 353 kts | 178° |
| 2026-05-05 18:36 | 60.11471 | 11.69306 | 14539 ft | 357 kts | 179° |
| 2026-05-05 18:36 | 60.08991 | 11.69775 | 15313 ft | 360 kts | 180° |
| 2026-05-05 18:36 | 60.06487 | 11.70247 | 16119 ft | 362 kts | 181° |
| 2026-05-05 18:37 | 60.03971 | 11.70720 | 16879 ft | 366 kts | 182° |
| 2026-05-05 18:37 | 60.01421 | 11.71198 | 17640 ft | 369 kts | 182° |
| 2026-05-05 18:37 | 59.98852 | 11.71679 | 18361 ft | 373 kts | 183° |
| 2026-05-05 18:37 | 59.96254 | 11.72165 | 19007 ft | 376 kts | 184° |
| 2026-05-05 18:38 | 59.93636 | 11.72653 | 19545 ft | 380 kts | 185° |
| 2026-05-05 18:38 | 59.90984 | 11.73146 | 20101 ft | 385 kts | 186° |
| 2026-05-05 18:38 | 59.88311 | 11.73642 | 20714 ft | 388 kts | 186° |
| 2026-05-05 18:38 | 59.85616 | 11.74145 | 21343 ft | 390 kts | 186° |
| 2026-05-05 18:39 | 59.82897 | 11.74652 | 21946 ft | 394 kts | 186° |
| 2026-05-05 18:39 | 59.80160 | 11.75159 | 22523 ft | 397 kts | 187° |
| 2026-05-05 18:39 | 59.77397 | 11.75672 | 23101 ft | 400 kts | 187° |
| 2026-05-05 18:39 | 59.74619 | 11.76187 | 23643 ft | 403 kts | 187° |
| 2026-05-05 18:40 | 59.71826 | 11.76707 | 24188 ft | 402 kts | 187° |
| 2026-05-05 18:40 | 59.69052 | 11.77227 | 24792 ft | 399 kts | 187° |
| 2026-05-05 18:40 | 59.66296 | 11.77739 | 25450 ft | 396 kts | 187° |
| 2026-05-05 18:40 | 59.63590 | 11.78331 | 25991 ft | 401 kts | 182° |
| 2026-05-05 18:41 | 59.60844 | 11.79590 | 26636 ft | 407 kts | 176° |
| 2026-05-05 18:41 | 59.58090 | 11.81206 | 26891 ft | 407 kts | 174° |
| 2026-05-05 18:41 | 59.55431 | 11.82859 | 26911 ft | 406 kts | 174° |
| 2026-05-05 18:41 | 59.52727 | 11.84508 | 26912 ft | 408 kts | 174° |
| 2026-05-05 18:42 | 59.50001 | 11.86115 | 26925 ft | 408 kts | 175° |
| 2026-05-05 18:42 | 59.47280 | 11.87676 | 26922 ft | 408 kts | 175° |
| 2026-05-05 18:42 | 59.44552 | 11.89212 | 26914 ft | 408 kts | 175° |
| 2026-05-05 18:42 | 59.41832 | 11.90734 | 26890 ft | 402 kts | 176° |
| 2026-05-05 18:43 | 59.39179 | 11.92223 | 26915 ft | 393 kts | 176° |
| 2026-05-05 18:43 | 59.36571 | 11.93677 | 26582 ft | 389 kts | 176° |
| 2026-05-05 18:43 | 59.33945 | 11.95120 | 26098 ft | 389 kts | 177° |
| 2026-05-05 18:43 | 59.31361 | 11.95743 | 25578 ft | 361 kts | 195° |
| 2026-05-05 18:44 | 59.28883 | 11.95409 | 25249 ft | 355 kts | 195° |
| 2026-05-05 18:44 | 59.26427 | 11.95090 | 24871 ft | 353 kts | 195° |
| 2026-05-05 18:44 | 59.23989 | 11.94795 | 24498 ft | 350 kts | 195° |
| 2026-05-05 18:44 | 59.21564 | 11.94518 | 24124 ft | 348 kts | 195° |
| 2026-05-05 18:45 | 59.19158 | 11.94254 | 23760 ft | 345 kts | 195° |
| 2026-05-05 18:45 | 59.16766 | 11.93997 | 23376 ft | 343 kts | 195° |
| 2026-05-05 18:45 | 59.14389 | 11.93744 | 22945 ft | 341 kts | 195° |
| 2026-05-05 18:45 | 59.12027 | 11.93494 | 22553 ft | 338 kts | 195° |
| 2026-05-05 18:46 | 59.09694 | 11.93248 | 22196 ft | 334 kts | 195° |
| 2026-05-05 18:46 | 59.07376 | 11.93003 | 21829 ft | 331 kts | 195° |
| 2026-05-05 18:46 | 59.05088 | 11.92769 | 21376 ft | 329 kts | 194° |
| 2026-05-05 18:46 | 59.02727 | 11.93077 | 20742 ft | 350 kts | 180° |
| 2026-05-05 18:47 | 59.00338 | 11.94018 | 20311 ft | 351 kts | 179° |
| 2026-05-05 18:47 | 58.97949 | 11.95003 | 19937 ft | 349 kts | 179° |
| 2026-05-05 18:47 | 58.95582 | 11.95982 | 19570 ft | 347 kts | 179° |
| 2026-05-05 18:47 | 58.93225 | 11.96946 | 19208 ft | 345 kts | 180° |
| 2026-05-05 18:48 | 58.90881 | 11.97892 | 18847 ft | 343 kts | 180° |
| 2026-05-05 18:48 | 58.88552 | 11.98822 | 18494 ft | 341 kts | 180° |
| 2026-05-05 18:48 | 58.86238 | 11.99738 | 18133 ft | 339 kts | 180° |
| 2026-05-05 18:48 | 58.83933 | 12.00645 | 17736 ft | 337 kts | 180° |
| 2026-05-05 18:49 | 58.81643 | 12.01543 | 17362 ft | 335 kts | 180° |
| 2026-05-05 18:49 | 58.79364 | 12.02434 | 16998 ft | 333 kts | 179° |
| 2026-05-05 18:49 | 58.77103 | 12.03317 | 16637 ft | 330 kts | 179° |
| 2026-05-05 18:49 | 58.74892 | 12.04179 | 16292 ft | 327 kts | 178° |
| 2026-05-05 18:50 | 58.72674 | 12.05044 | 15988 ft | 323 kts | 178° |
| 2026-05-05 18:50 | 58.70478 | 12.05898 | 15654 ft | 321 kts | 178° |
| 2026-05-05 18:50 | 58.68268 | 12.06755 | 15327 ft | 319 kts | 178° |
| 2026-05-05 18:50 | 58.66125 | 12.07585 | 14993 ft | 317 kts | 178° |
| 2026-05-05 18:51 | 58.63970 | 12.08419 | 14674 ft | 315 kts | 178° |
| 2026-05-05 18:51 | 58.61792 | 12.09260 | 14337 ft | 314 kts | 178° |
| 2026-05-05 18:51 | 58.59689 | 12.10071 | 14019 ft | 312 kts | 177° |
| 2026-05-05 18:51 | 58.57563 | 12.10890 | 13691 ft | 311 kts | 177° |
| 2026-05-05 18:52 | 58.55447 | 12.11703 | 13331 ft | 310 kts | 176° |
| 2026-05-05 18:52 | 58.53341 | 12.12513 | 12974 ft | 308 kts | 176° |
| 2026-05-05 18:52 | 58.51248 | 12.13317 | 12655 ft | 306 kts | 176° |
| 2026-05-05 18:52 | 58.49172 | 12.14114 | 12330 ft | 303 kts | 175° |
| 2026-05-05 18:53 | 58.47109 | 12.14905 | 12013 ft | 301 kts | 175° |
| 2026-05-05 18:53 | 58.45031 | 12.15701 | 11670 ft | 299 kts | 175° |
| 2026-05-05 18:53 | 58.43020 | 12.16471 | 11368 ft | 297 kts | 176° |
| 2026-05-05 18:53 | 58.41004 | 12.17241 | 11049 ft | 296 kts | 175° |
| 2026-05-05 18:54 | 58.38990 | 12.18009 | 10745 ft | 294 kts | 175° |
| 2026-05-05 18:54 | 58.36985 | 12.18772 | 10429 ft | 293 kts | 175° |
| 2026-05-05 18:54 | 58.34995 | 12.19530 | 10226 ft | 289 kts | 175° |
| 2026-05-05 18:54 | 58.33054 | 12.20272 | 10083 ft | 281 kts | 175° |
| 2026-05-05 18:55 | 58.31159 | 12.20995 | 9967 ft | 274 kts | 175° |
| 2026-05-05 18:55 | 58.29301 | 12.21701 | 9708 ft | 272 kts | 175° |
| 2026-05-05 18:55 | 58.27450 | 12.22400 | 9439 ft | 270 kts | 174° |
| 2026-05-05 18:55 | 58.25611 | 12.23094 | 9170 ft | 268 kts | 174° |
| 2026-05-05 18:56 | 58.23782 | 12.23784 | 8901 ft | 267 kts | 174° |
| 2026-05-05 18:56 | 58.21967 | 12.24468 | 8642 ft | 265 kts | 173° |
| 2026-05-05 18:56 | 58.20164 | 12.25148 | 8407 ft | 262 kts | 173° |
| 2026-05-05 18:56 | 58.18387 | 12.25818 | 8168 ft | 260 kts | 173° |
| 2026-05-05 18:57 | 58.16617 | 12.26485 | 7907 ft | 259 kts | 173° |
| 2026-05-05 18:57 | 58.14852 | 12.27148 | 7655 ft | 257 kts | 172° |
| 2026-05-05 18:57 | 58.13101 | 12.27806 | 7403 ft | 256 kts | 172° |
| 2026-05-05 18:57 | 58.11359 | 12.28460 | 7150 ft | 255 kts | 171° |
| 2026-05-05 18:58 | 58.09623 | 12.29111 | 6903 ft | 254 kts | 171° |
| 2026-05-05 18:58 | 58.07896 | 12.29758 | 6647 ft | 253 kts | 171° |
| 2026-05-05 18:58 | 58.06175 | 12.30403 | 6395 ft | 252 kts | 170° |
| 2026-05-05 18:58 | 58.04457 | 12.31046 | 6134 ft | 254 kts | 170° |
| 2026-05-05 18:59 | 58.02694 | 12.31704 | 5858 ft | 261 kts | 170° |
| 2026-05-05 18:59 | 58.00915 | 12.32368 | 5581 ft | 266 kts | 169° |
| 2026-05-05 18:59 | 57.99097 | 12.33045 | 5276 ft | 266 kts | 169° |
| 2026-05-05 18:59 | 57.97306 | 12.33928 | 5000 ft | 266 kts | 160° |
| 2026-05-05 19:00 | 57.95585 | 12.35151 | 4711 ft | 264 kts | 158° |
| 2026-05-05 19:00 | 57.93876 | 12.36399 | 4414 ft | 263 kts | 159° |
| 2026-05-05 19:00 | 57.92166 | 12.37616 | 4118 ft | 262 kts | 159° |
| 2026-05-05 19:00 | 57.90465 | 12.38802 | 3824 ft | 261 kts | 159° |
| 2026-05-05 19:01 | 57.88763 | 12.39976 | 3537 ft | 259 kts | 160° |
| 2026-05-05 19:01 | 57.87066 | 12.41097 | 3254 ft | 258 kts | 165° |
| 2026-05-05 19:01 | 57.85291 | 12.41473 | 2964 ft | 254 kts | 179° |
| 2026-05-05 19:01 | 57.83550 | 12.41575 | 2663 ft | 248 kts | 178° |
| 2026-05-05 19:02 | 57.81874 | 12.41698 | 2562 ft | 233 kts | 182° |
| 2026-05-05 19:02 | 57.80400 | 12.40931 | 2506 ft | 212 kts | 213° |
| 2026-05-05 19:02 | 57.79166 | 12.39619 | 2494 ft | 198 kts | 206° |
| 2026-05-05 19:02 | 57.77919 | 12.38556 | 2510 ft | 197 kts | 206° |
| 2026-05-05 19:03 | 57.76676 | 12.37450 | 2505 ft | 198 kts | 207° |
| 2026-05-05 19:03 | 57.75427 | 12.36314 | 2298 ft | 199 kts | 207° |
| 2026-05-05 19:03 | 57.74610 | 12.35570 | 2127 ft | 196 kts | 207° |
| 2026-05-05 19:03 | 57.73404 | 12.34472 | 1857 ft | 189 kts | 207° |
| 2026-05-05 19:04 | 57.72261 | 12.33432 | 1594 ft | 176 kts | 208° |
| 2026-05-05 19:04 | 57.71216 | 12.32480 | 1381 ft | 159 kts | 208° |
| 2026-05-05 19:04 | 57.70261 | 12.31610 | 1122 ft | 147 kts | 209° |
| 2026-05-05 19:04 | 57.69061 | 12.30515 | 875 ft | 144 kts | 208° |
| 2026-05-05 19:05 | 57.68449 | 12.29957 | 747 ft | 145 kts | 207° |
| 2026-05-05 19:05 | 57.67534 | 12.29126 | 547 ft | 148 kts | 207° |
| 2026-05-05 19:05 | 57.66672 | 12.28334 | 511 ft | 119 kts | 206° |
| 2026-05-05 19:05 | 57.66082 | 12.27799 | 507 ft | 46 kts | 205° |
| 2026-05-05 19:06 | 57.65830 | 12.27664 | 504 ft | 30 kts | 179° |
| 2026-05-05 19:06 | 57.65733 | 12.27697 | 504 ft | 3 kts | 146° |
| 2026-05-05 19:06 | 57.65722 | 12.27721 | 504 ft | 3 kts | 125° |
| 2026-05-05 19:06 | 57.65716 | 12.27753 | 504 ft | 3 kts | 97° |
| 2026-05-05 19:07 | 57.65731 | 12.27811 | 504 ft | 8 kts | 45° |
| 2026-05-05 19:07 | 57.65799 | 12.27885 | 505 ft | 15 kts | 26° |
| 2026-05-05 19:07 | 57.65907 | 12.27981 | 506 ft | 19 kts | 26° |
| 2026-05-05 19:07 | 57.66032 | 12.28093 | 507 ft | 21 kts | 27° |
| 2026-05-05 19:08 | 57.66166 | 12.28218 | 509 ft | 22 kts | 26° |
| 2026-05-05 19:08 | 57.66308 | 12.28347 | 510 ft | 23 kts | 26° |
| 2026-05-05 19:08 | 57.66450 | 12.28475 | 510 ft | 22 kts | 25° |
| 2026-05-05 19:08 | 57.66587 | 12.28602 | 511 ft | 22 kts | 26° |
| 2026-05-05 19:09 | 57.66721 | 12.28725 | 512 ft | 22 kts | 26° |
| 2026-05-05 19:09 | 57.66862 | 12.28853 | 512 ft | 22 kts | 25° |
| 2026-05-05 19:09 | 57.66999 | 12.28977 | 513 ft | 22 kts | 26° |
| 2026-05-05 19:09 | 57.67139 | 12.29104 | 513 ft | 22 kts | 26° |
| 2026-05-05 19:10 | 57.67254 | 12.29238 | 514 ft | 16 kts | 65° |
| 2026-05-05 19:10 | 57.67228 | 12.29424 | 515 ft | 14 kts | 116° |
| 2026-05-05 19:10 | 57.67230 | 12.29575 | 515 ft | 12 kts | 39° |
| 2026-05-05 19:10 | 57.67257 | 12.29665 | 515 ft | 8 kts | 109° |
| 2026-05-05 19:11 | 57.67242 | 12.29727 | 515 ft | 2 kts | 115° |
| 2026-05-05 19:11 | 57.67241 | 12.29730 | 515 ft | 0 kts | 115° |